Lenoxburg, Kentucky
Current Conditions -  °F | °C
As of 6:53 PM on Monday 22 Dec 2014 (Local Time) from KLUK Reporting Station
Broken Clouds Broken Clouds  
Wind Chill: 48°   Ceiling: 10000
Heat Index: 48°   Visibility: 10mi
Dew Point: 38°   Wind: 0mph
Humidity: 68%   Direction: NA
Pressure: 29.81"   Gusts: NA
Location:  38.6506°N, 84.351°W
Report Text: KLUK 222353Z 00000KT 10SM BKN100 09/03 A2981 RMK AO2 SLP096 T00890033 10111 20083 55010
Loading
Personal Weather Stations






























Interactive Weather Map New forecast layout! Learn more

10-Day Weather Forecast

Advertisements
Track Severe Weather on mobile